sensor_id;sensor_type;location;lat;lon;timestamp;pressure;altitude;pressure_sealevel;temperature;humidity
58245;BME280;44550;43.864;25.986;2023-03-16T00:03:27;100105.31;;;8.61;90.50
58245;BME280;44550;43.864;25.986;2023-03-16T00:07:28;100117.41;;;8.43;92.66
58245;BME280;44550;43.864;25.986;2023-03-16T00:11:33;100118.25;;;8.41;93.07
58245;BME280;44550;43.864;25.986;2023-03-16T00:15:40;100129.44;;;8.26;94.82
58245;BME280;44550;43.864;25.986;2023-03-16T00:19:44;100133.78;;;8.30;95.07
58245;BME280;44550;43.864;25.986;2023-03-16T00:23:44;100131.22;;;8.32;95.56
58245;BME280;44550;43.864;25.986;2023-03-16T00:27:43;100128.59;;;8.29;95.68
58245;BME280;44550;43.864;25.986;2023-03-16T00:31:45;100133.75;;;8.27;96.29
58245;BME280;44550;43.864;25.986;2023-03-16T00:35:44;100141.53;;;8.19;97.45
58245;BME280;44550;43.864;25.986;2023-03-16T00:39:46;100139.75;;;8.12;98.59
58245;BME280;44550;43.864;25.986;2023-03-16T00:43:45;100143.19;;;8.08;99.25
58245;BME280;44550;43.864;25.986;2023-03-16T00:47:47;100137.16;;;8.12;99.59
58245;BME280;44550;43.864;25.986;2023-03-16T00:51:49;100128.44;;;8.10;99.81
58245;BME280;44550;43.864;25.986;2023-03-16T00:55:49;100137.19;;;8.20;99.59
58245;BME280;44550;43.864;25.986;2023-03-16T00:59:49;100152.78;;;8.17;99.80
58245;BME280;44550;43.864;25.986;2023-03-16T01:03:51;100148.47;;;8.19;100.00
58245;BME280;44550;43.864;25.986;2023-03-16T01:07:52;100153.75;;;8.25;99.92
58245;BME280;44550;43.864;25.986;2023-03-16T01:11:51;100159.84;;;8.30;99.62
58245;BME280;44550;43.864;25.986;2023-03-16T01:15:51;100153.13;;;8.64;99.18
58245;BME280;44550;43.864;25.986;2023-03-16T01:19:52;100160.25;;;9.05;95.03
58245;BME280;44550;43.864;25.986;2023-03-16T01:23:52;100167.28;;;9.22;93.52
58245;BME280;44550;43.864;25.986;2023-03-16T01:27:51;100170.66;;;8.91;94.33
58245;BME280;44550;43.864;25.986;2023-03-16T01:31:51;100171.44;;;8.77;95.49
58245;BME280;44550;43.864;25.986;2023-03-16T01:35:53;100167.09;;;8.79;96.16
58245;BME280;44550;43.864;25.986;2023-03-16T01:39:54;100175.75;;;8.73;96.16
58245;BME280;44550;43.864;25.986;2023-03-16T01:43:53;100176.59;;;8.66;96.95
58245;BME280;44550;43.864;25.986;2023-03-16T01:47:55;100191.41;;;8.75;96.86
58245;BME280;44550;43.864;25.986;2023-03-16T01:51:57;100185.41;;;8.91;95.86
58245;BME280;44550;43.864;25.986;2023-03-16T01:55:58;100191.47;;;8.87;95.71
58245;BME280;44550;43.864;25.986;2023-03-16T01:59:58;100188.88;;;8.90;95.69
58245;BME280;44550;43.864;25.986;2023-03-16T02:04:13;100194.91;;;8.75;96.93
58245;BME280;44550;43.864;25.986;2023-03-16T02:08:17;100196.50;;;8.55;99.12
58245;BME280;44550;43.864;25.986;2023-03-16T02:12:18;100185.16;;;8.45;100.00
58245;BME280;44550;43.864;25.986;2023-03-16T02:16:19;100196.28;;;8.30;100.00
58245;BME280;44550;43.864;25.986;2023-03-16T02:20:22;100189.28;;;8.18;100.00
58245;BME280;44550;43.864;25.986;2023-03-16T02:24:25;100197.00;;;8.06;100.00
58245;BME280;44550;43.864;25.986;2023-03-16T02:28:24;100196.00;;;7.93;100.00
58245;BME280;44550;43.864;25.986;2023-03-16T02:32:29;100210.00;;;8.05;100.00
58245;BME280;44550;43.864;25.986;2023-03-16T02:36:30;100210.91;;;8.08;100.00
58245;BME280;44550;43.864;25.986;2023-03-16T02:40:31;100210.22;;;8.34;100.00
58245;BME280;44550;43.864;25.986;2023-03-16T02:44:32;100213.84;;;8.50;100.00
58245;BME280;44550;43.864;25.986;2023-03-16T02:48:37;100212.13;;;8.53;100.00
58245;BME280;44550;43.864;25.986;2023-03-16T02:52:41;100221.53;;;8.36;100.00
58245;BME280;44550;43.864;25.986;2023-03-16T02:56:40;100218.00;;;8.31;100.00
58245;BME280;44550;43.864;25.986;2023-03-16T03:00:41;100227.44;;;8.15;100.00
58245;BME280;44550;43.864;25.986;2023-03-16T03:04:44;100223.09;;;8.12;100.00
58245;BME280;44550;43.864;25.986;2023-03-16T03:08:44;100229.16;;;8.11;100.00
58245;BME280;44550;43.864;25.986;2023-03-16T03:12:43;100224.88;;;8.18;100.00
58245;BME280;44550;43.864;25.986;2023-03-16T03:16:45;100230.13;;;8.27;100.00
58245;BME280;44550;43.864;25.986;2023-03-16T03:20:47;100234.47;;;8.27;100.00
58245;BME280;44550;43.864;25.986;2023-03-16T03:24:46;100241.47;;;8.34;100.00
58245;BME280;44550;43.864;25.986;2023-03-16T03:28:46;100244.19;;;8.43;100.00
58245;BME280;44550;43.864;25.986;2023-03-16T03:32:44;100248.44;;;8.35;100.00
58245;BME280;44550;43.864;25.986;2023-03-16T03:36:48;100254.69;;;8.52;100.00
58245;BME280;44550;43.864;25.986;2023-03-16T03:40:49;100270.25;;;8.43;100.00
58245;BME280;44550;43.864;25.986;2023-03-16T03:44:48;100284.88;;;8.29;100.00
58245;BME280;44550;43.864;25.986;2023-03-16T03:48:48;100290.81;;;8.17;100.00
58245;BME280;44550;43.864;25.986;2023-03-16T03:52:50;100301.25;;;8.17;100.00
58245;BME280;44550;43.864;25.986;2023-03-16T03:56:50;100307.94;;;7.93;100.00
58245;BME280;44550;43.864;25.986;2023-03-16T04:00:50;100314.72;;;7.77;100.00
58245;BME280;44550;43.864;25.986;2023-03-16T04:04:50;100313.81;;;7.74;100.00
58245;BME280;44550;43.864;25.986;2023-03-16T04:08:51;100319.75;;;7.62;100.00
58245;BME280;44550;43.864;25.986;2023-03-16T04:12:54;100319.69;;;7.56;100.00
58245;BME280;44550;43.864;25.986;2023-03-16T04:16:54;100332.69;;;7.56;100.00
58245;BME280;44550;43.864;25.986;2023-03-16T04:21:03;100332.69;;;7.56;100.00
58245;BME280;44550;43.864;25.986;2023-03-16T04:25:05;100333.50;;;7.52;100.00
58245;BME280;44550;43.864;25.986;2023-03-16T04:29:07;100339.66;;;7.59;100.00
58245;BME280;44550;43.864;25.986;2023-03-16T04:33:06;100342.88;;;7.41;100.00
58245;BME280;44550;43.864;25.986;2023-03-16T04:37:06;100354.88;;;7.29;100.00
58245;BME280;44550;43.864;25.986;2023-03-16T04:41:09;100363.31;;;7.13;100.00
58245;BME280;44550;43.864;25.986;2023-03-16T04:45:11;100384.63;;;6.91;100.00
58245;BME280;44550;43.864;25.986;2023-03-16T04:49:11;100393.94;;;6.76;100.00
58245;BME280;44550;43.864;25.986;2023-03-16T04:53:11;100400.69;;;6.67;100.00
58245;BME280;44550;43.864;25.986;2023-03-16T04:57:14;100401.34;;;6.53;100.00
58245;BME280;44550;43.864;25.986;2023-03-16T05:01:18;100436.94;;;6.61;100.00
58245;BME280;44550;43.864;25.986;2023-03-16T05:05:20;100451.66;;;6.60;100.00
58245;BME280;44550;43.864;25.986;2023-03-16T05:09:22;100455.56;;;6.38;100.00
58245;BME280;44550;43.864;25.986;2023-03-16T05:13:23;100463.22;;;6.30;100.00
58245;BME280;44550;43.864;25.986;2023-03-16T05:17:26;100471.09;;;6.33;100.00
58245;BME280;44550;43.864;25.986;2023-03-16T05:21:25;100470.22;;;6.33;100.00
58245;BME280;44550;43.864;25.986;2023-03-16T05:25:28;100493.25;;;6.18;100.00
58245;BME280;44550;43.864;25.986;2023-03-16T05:29:31;100497.38;;;6.08;100.00
58245;BME280;44550;43.864;25.986;2023-03-16T05:33:30;100496.72;;;6.18;100.00
58245;BME280;44550;43.864;25.986;2023-03-16T05:37:31;100504.38;;;6.12;100.00
58245;BME280;44550;43.864;25.986;2023-03-16T05:41:35;100512.38;;;6.21;100.00
58245;BME280;44550;43.864;25.986;2023-03-16T05:45:38;100520.22;;;6.23;100.00
58245;BME280;44550;43.864;25.986;2023-03-16T05:49:38;100525.16;;;6.12;100.00
58245;BME280;44550;43.864;25.986;2023-03-16T05:53:38;100531.19;;;6.11;100.00
58245;BME280;44550;43.864;25.986;2023-03-16T05:57:38;100534.56;;;6.07;100.00
58245;BME280;44550;43.864;25.986;2023-03-16T06:01:40;100549.06;;;5.97;100.00
58245;BME280;44550;43.864;25.986;2023-03-16T06:05:40;100550.00;;;6.01;100.00
58245;BME280;44550;43.864;25.986;2023-03-16T06:09:40;100559.84;;;5.78;100.00
58245;BME280;44550;43.864;25.986;2023-03-16T06:13:40;100566.69;;;5.76;100.00
58245;BME280;44550;43.864;25.986;2023-03-16T06:17:42;100550.94;;;5.67;100.00
58245;BME280;44550;43.864;25.986;2023-03-16T06:21:41;100547.25;;;5.57;100.00
58245;BME280;44550;43.864;25.986;2023-03-16T06:25:42;100551.56;;;5.56;100.00
58245;BME280;44550;43.864;25.986;2023-03-16T06:29:42;100552.53;;;5.61;100.00
58245;BME280;44550;43.864;25.986;2023-03-16T06:33:43;100554.25;;;5.61;100.00
58245;BME280;44550;43.864;25.986;2023-03-16T06:37:43;100569.66;;;5.55;100.00
58245;BME280;44550;43.864;25.986;2023-03-16T06:41:45;100572.44;;;5.62;100.00
58245;BME280;44550;43.864;25.986;2023-03-16T06:45:45;100579.47;;;5.67;100.00
58245;BME280;44550;43.864;25.986;2023-03-16T06:49:47;100587.50;;;5.77;100.00
58245;BME280;44550;43.864;25.986;2023-03-16T06:53:48;100604.47;;;5.64;100.00
58245;BME280;44550;43.864;25.986;2023-03-16T06:57:49;100609.19;;;5.81;100.00
58245;BME280;44550;43.864;25.986;2023-03-16T07:01:48;100611.41;;;5.65;100.00
58245;BME280;44550;43.864;25.986;2023-03-16T07:05:50;100625.22;;;5.64;100.00
58245;BME280;44550;43.864;25.986;2023-03-16T07:09:49;100630.69;;;5.75;100.00
58245;BME280;44550;43.864;25.986;2023-03-16T07:13:49;100634.66;;;5.61;100.00
58245;BME280;44550;43.864;25.986;2023-03-16T07:17:51;100645.81;;;5.57;100.00
58245;BME280;44550;43.864;25.986;2023-03-16T07:21:56;100657.03;;;5.57;100.00
58245;BME280;44550;43.864;25.986;2023-03-16T07:25:56;100665.94;;;5.67;100.00
58245;BME280;44550;43.864;25.986;2023-03-16T07:34:12;100678.16;;;5.73;100.00
58245;BME280;44550;43.864;25.986;2023-03-16T07:38:14;100688.28;;;5.62;100.00
58245;BME280;44550;43.864;25.986;2023-03-16T07:42:14;100693.22;;;5.53;100.00
58245;BME280;44550;43.864;25.986;2023-03-16T07:46:32;100694.50;;;5.69;100.00
58245;BME280;44550;43.864;25.986;2023-03-16T07:51:05;100702.28;;;5.69;100.00
58245;BME280;44550;43.864;25.986;2023-03-16T07:55:07;100698.53;;;5.57;100.00
58245;BME280;44550;43.864;25.986;2023-03-16T07:59:08;100698.13;;;5.42;100.00
58245;BME280;44550;43.864;25.986;2023-03-16T08:03:09;100705.28;;;5.51;100.00
58245;BME280;44550;43.864;25.986;2023-03-16T08:07:13;100703.66;;;5.54;100.00
58245;BME280;44550;43.864;25.986;2023-03-16T08:11:18;100711.34;;;5.51;100.00
58245;BME280;44550;43.864;25.986;2023-03-16T08:15:20;100715.38;;;5.40;100.00
58245;BME280;44550;43.864;25.986;2023-03-16T08:19:21;100718.44;;;5.58;100.00
58245;BME280;44550;43.864;25.986;2023-03-16T08:23:22;100715.47;;;5.43;100.00
58245;BME280;44550;43.864;25.986;2023-03-16T08:27:23;100723.97;;;5.39;100.00
58245;BME280;44550;43.864;25.986;2023-03-16T08:31:28;100723.00;;;5.35;100.00
58245;BME280;44550;43.864;25.986;2023-03-16T08:35:30;100730.03;;;5.39;100.00
58245;BME280;44550;43.864;25.986;2023-03-16T08:39:30;100730.13;;;5.42;100.00
58245;BME280;44550;43.864;25.986;2023-03-16T08:43:35;100741.63;;;5.52;100.00
58245;BME280;44550;43.864;25.986;2023-03-16T08:47:38;100746.88;;;5.54;100.00
58245;BME280;44550;43.864;25.986;2023-03-16T08:51:41;100751.47;;;5.64;100.00
58245;BME280;44550;43.864;25.986;2023-03-16T08:55:41;100746.94;;;5.57;100.00
58245;BME280;44550;43.864;25.986;2023-03-16T08:59:50;100755.69;;;5.60;100.00
58245;BME280;44550;43.864;25.986;2023-03-16T09:03:50;100756.13;;;5.46;100.00
58245;BME280;44550;43.864;25.986;2023-03-16T09:07:58;100772.56;;;5.46;100.00
58245;BME280;44550;43.864;25.986;2023-03-16T09:11:57;100767.97;;;5.36;100.00
58245;BME280;44550;43.864;25.986;2023-03-16T09:16:13;100777.72;;;5.45;100.00
58245;BME280;44550;43.864;25.986;2023-03-16T09:20:16;100775.72;;;5.34;100.00
58245;BME280;44550;43.864;25.986;2023-03-16T09:24:31;100786.09;;;5.36;100.00
58245;BME280;44550;43.864;25.986;2023-03-16T09:28:30;100789.16;;;5.51;100.00
58245;BME280;44550;43.864;25.986;2023-03-16T09:32:35;100795.66;;;5.67;100.00
58245;BME280;44550;43.864;25.986;2023-03-16T09:36:35;100796.81;;;5.78;100.00
58245;BME280;44550;43.864;25.986;2023-03-16T09:40:39;100806.31;;;5.78;100.00
58245;BME280;44550;43.864;25.986;2023-03-16T09:44:42;100801.81;;;5.72;100.00
58245;BME280;44550;43.864;25.986;2023-03-16T09:48:51;100806.31;;;5.78;100.00
58245;BME280;44550;43.864;25.986;2023-03-16T09:53:02;100814.19;;;5.81;100.00
58245;BME280;44550;43.864;25.986;2023-03-16T09:57:09;100818.03;;;5.95;100.00
58245;BME280;44550;43.864;25.986;2023-03-16T10:02:38;100817.81;;;5.87;100.00
58245;BME280;44550;43.864;25.986;2023-03-16T10:05:54;100818.66;;;5.86;100.00
58245;BME280;44550;43.864;25.986;2023-03-16T10:10:00;100820.81;;;5.70;100.00
58245;BME280;44550;43.864;25.986;2023-03-16T10:14:36;100819.81;;;5.96;100.00
58245;BME280;44550;43.864;25.986;2023-03-16T10:22:57;100825.22;;;6.04;100.00
58245;BME280;44550;43.864;25.986;2023-03-16T10:27:01;100830.44;;;6.05;100.00
58245;BME280;44550;43.864;25.986;2023-03-16T10:31:17;100835.69;;;6.07;100.00
58245;BME280;44550;43.864;25.986;2023-03-16T10:35:28;100842.44;;;6.00;100.00
58245;BME280;44550;43.864;25.986;2023-03-16T10:39:36;100844.88;;;5.96;100.00
58245;BME280;44550;43.864;25.986;2023-03-16T10:43:39;100844.63;;;5.86;100.00
58245;BME280;44550;43.864;25.986;2023-03-16T10:47:38;100839.78;;;5.99;100.00
58245;BME280;44550;43.864;25.986;2023-03-16T10:51:41;100845.44;;;5.85;100.00
58245;BME280;44550;43.864;25.986;2023-03-16T10:55:43;100845.25;;;5.79;100.00
58245;BME280;44550;43.864;25.986;2023-03-16T10:59:47;100844.69;;;5.89;100.00
58245;BME280;44550;43.864;25.986;2023-03-16T11:03:47;100842.84;;;5.85;100.00
58245;BME280;44550;43.864;25.986;2023-03-16T11:07:55;100846.44;;;5.91;100.00
58245;BME280;44550;43.864;25.986;2023-03-16T11:12:04;100838.66;;;5.91;100.00
58245;BME280;44550;43.864;25.986;2023-03-16T11:16:16;100842.44;;;6.02;100.00
58245;BME280;44550;43.864;25.986;2023-03-16T11:20:30;100847.53;;;5.97;100.00
58245;BME280;44550;43.864;25.986;2023-03-16T11:24:36;100844.09;;;5.98;100.00
58245;BME280;44550;43.864;25.986;2023-03-16T11:28:45;100846.59;;;5.95;100.00
58245;BME280;44550;43.864;25.986;2023-03-16T11:33:08;100845.03;;;6.00;100.00
58245;BME280;44550;43.864;25.986;2023-03-16T11:37:22;100846.69;;;5.98;100.00
58245;BME280;44550;43.864;25.986;2023-03-16T11:41:42;100849.16;;;5.94;100.00
58245;BME280;44550;43.864;25.986;2023-03-16T11:46:05;100856.28;;;6.01;100.00
58245;BME280;44550;43.864;25.986;2023-03-16T11:50:19;100852.84;;;6.02;100.00
58245;BME280;44550;43.864;25.986;2023-03-16T11:54:35;100859.13;;;6.10;100.00
58245;BME280;44550;43.864;25.986;2023-03-16T11:58:40;100856.09;;;6.26;100.00
58245;BME280;44550;43.864;25.986;2023-03-16T12:02:49;100856.78;;;6.19;100.00
58245;BME280;44550;43.864;25.986;2023-03-16T12:07:05;100863.47;;;6.11;100.00
58245;BME280;44550;43.864;25.986;2023-03-16T12:11:19;100864.31;;;6.10;100.00
58245;BME280;44550;43.864;25.986;2023-03-16T12:15:37;100872.03;;;6.07;100.00
58245;BME280;44550;43.864;25.986;2023-03-16T12:19:43;100869.16;;;6.29;100.00
58245;BME280;44550;43.864;25.986;2023-03-16T12:23:48;100872.66;;;6.31;100.00
58245;BME280;44550;43.864;25.986;2023-03-16T12:27:49;100873.44;;;6.27;100.00
58245;BME280;44550;43.864;25.986;2023-03-16T12:31:51;100880.44;;;6.30;100.00
58245;BME280;44550;43.864;25.986;2023-03-16T12:35:57;100882.78;;;6.22;100.00
58245;BME280;44550;43.864;25.986;2023-03-16T12:40:10;100887.19;;;6.23;100.00
58245;BME280;44550;43.864;25.986;2023-03-16T12:44:16;100899.66;;;6.37;100.00
58245;BME280;44550;43.864;25.986;2023-03-16T12:48:19;100902.53;;;6.49;100.00
58245;BME280;44550;43.864;25.986;2023-03-16T12:52:24;100903.91;;;6.34;100.00
58245;BME280;44550;43.864;25.986;2023-03-16T12:56:26;100907.53;;;6.41;100.00
58245;BME280;44550;43.864;25.986;2023-03-16T13:00:31;100910.94;;;6.39;100.00
58245;BME280;44550;43.864;25.986;2023-03-16T13:04:37;100911.03;;;6.42;100.00
58245;BME280;44550;43.864;25.986;2023-03-16T13:08:43;100921.19;;;6.32;100.00
58245;BME280;44550;43.864;25.986;2023-03-16T13:12:45;100922.66;;;6.23;100.00
58245;BME280;44550;43.864;25.986;2023-03-16T13:16:47;100930.28;;;6.17;100.00
58245;BME280;44550;43.864;25.986;2023-03-16T13:20:49;100928.38;;;6.11;100.00
58245;BME280;44550;43.864;25.986;2023-03-16T13:24:53;100940.66;;;6.17;100.00
58245;BME280;44550;43.864;25.986;2023-03-16T13:28:55;100941.25;;;6.06;100.00
58245;BME280;44550;43.864;25.986;2023-03-16T13:32:55;100948.84;;;6.00;100.00
58245;BME280;44550;43.864;25.986;2023-03-16T13:37:11;100947.66;;;6.19;100.00
58245;BME280;44550;43.864;25.986;2023-03-16T13:41:13;100956.41;;;6.23;100.00
58245;BME280;44550;43.864;25.986;2023-03-16T13:45:13;100963.34;;;6.24;100.00
58245;BME280;44550;43.864;25.986;2023-03-16T13:49:14;100960.97;;;6.01;100.00
58245;BME280;44550;43.864;25.986;2023-03-16T13:53:14;100964.78;;;5.84;100.00
58245;BME280;44550;43.864;25.986;2023-03-16T13:57:17;100968.72;;;6.00;100.00
58245;BME280;44550;43.864;25.986;2023-03-16T14:01:23;100973.03;;;5.99;100.00
58245;BME280;44550;43.864;25.986;2023-03-16T14:05:24;100975.59;;;5.98;100.00
58245;BME280;44550;43.864;25.986;2023-03-16T14:09:25;100983.56;;;6.04;100.00
58245;BME280;44550;43.864;25.986;2023-03-16T14:13:32;100986.16;;;6.04;100.00
58245;BME280;44550;43.864;25.986;2023-03-16T14:17:34;100988.34;;;5.92;100.00
58245;BME280;44550;43.864;25.986;2023-03-16T14:21:41;100988.59;;;5.99;100.00
58245;BME280;44550;43.864;25.986;2023-03-16T14:25:43;100993.63;;;5.93;100.00
58245;BME280;44550;43.864;25.986;2023-03-16T14:29:49;101000.06;;;5.79;100.00
58245;BME280;44550;43.864;25.986;2023-03-16T14:33:49;101010.63;;;5.85;100.00
58245;BME280;44550;43.864;25.986;2023-03-16T14:42:29;101013.78;;;5.75;100.00
58245;BME280;44550;43.864;25.986;2023-03-16T14:46:39;101021.63;;;5.76;100.00
58245;BME280;44550;43.864;25.986;2023-03-16T14:50:39;101029.56;;;5.81;100.00
58245;BME280;44550;43.864;25.986;2023-03-16T14:54:41;101034.53;;;5.75;100.00
58245;BME280;44550;43.864;25.986;2023-03-16T14:58:46;101041.16;;;5.65;100.00
58245;BME280;44550;43.864;25.986;2023-03-16T15:03:02;101040.47;;;5.71;100.00
58245;BME280;44550;43.864;25.986;2023-03-16T15:07:17;101022.22;;;5.68;100.00
58245;BME280;44550;43.864;25.986;2023-03-16T15:11:17;101050.19;;;5.76;100.00
58245;BME280;44550;43.864;25.986;2023-03-16T15:15:23;101061.78;;;5.60;100.00
58245;BME280;44550;43.864;25.986;2023-03-16T15:19:29;101059.22;;;5.62;100.00
58245;BME280;44550;43.864;25.986;2023-03-16T15:23:38;101070.13;;;5.52;100.00
58245;BME280;44550;43.864;25.986;2023-03-16T15:27:55;101076.41;;;5.58;100.00
58245;BME280;44550;43.864;25.986;2023-03-16T15:32:02;101075.81;;;5.67;100.00
58245;BME280;44550;43.864;25.986;2023-03-16T15:36:08;101089.22;;;5.81;100.00
58245;BME280;44550;43.864;25.986;2023-03-16T15:40:15;101092.84;;;5.59;100.00
58245;BME280;44550;43.864;25.986;2023-03-16T15:44:15;101097.56;;;5.71;100.00
58245;BME280;44550;43.864;25.986;2023-03-16T15:48:15;101104.66;;;5.76;100.00
58245;BME280;44550;43.864;25.986;2023-03-16T15:52:20;101066.66;;;5.51;100.00
58245;BME280;44550;43.864;25.986;2023-03-16T15:56:24;101114.34;;;5.82;100.00
58245;BME280;44550;43.864;25.986;2023-03-16T16:05:51;101138.91;;;5.66;100.00
58245;BME280;44550;43.864;25.986;2023-03-16T16:15:24;101151.59;;;5.57;100.00
58245;BME280;44550;43.864;25.986;2023-03-16T16:19:45;101157.75;;;5.60;100.00
58245;BME280;44550;43.864;25.986;2023-03-16T16:29:45;101165.56;;;5.62;100.00
58245;BME280;44550;43.864;25.986;2023-03-16T16:39:11;101178.75;;;5.42;100.00
58245;BME280;44550;43.864;25.986;2023-03-16T16:43:53;101186.88;;;5.28;100.00
58245;BME280;44550;43.864;25.986;2023-03-16T16:48:27;101194.00;;;5.33;100.00
58245;BME280;44550;43.864;25.986;2023-03-16T16:52:38;101204.91;;;5.49;100.00
58245;BME280;44550;43.864;25.986;2023-03-16T16:57:12;101210.47;;;5.35;100.00
58245;BME280;44550;43.864;25.986;2023-03-16T17:01:43;101215.16;;;5.46;100.00
58245;BME280;44550;43.864;25.986;2023-03-16T17:05:43;101228.00;;;5.42;100.00
58245;BME280;44550;43.864;25.986;2023-03-16T17:09:45;101229.69;;;5.40;100.00
58245;BME280;44550;43.864;25.986;2023-03-16T17:13:45;101233.72;;;5.32;100.00
58245;BME280;44550;43.864;25.986;2023-03-16T17:17:45;101243.38;;;5.60;100.00
58245;BME280;44550;43.864;25.986;2023-03-16T17:21:44;101248.66;;;5.63;100.00
58245;BME280;44550;43.864;25.986;2023-03-16T17:25:53;101249.31;;;5.58;100.00
58245;BME280;44550;43.864;25.986;2023-03-16T17:30:05;101259.31;;;5.47;100.00
58245;BME280;44550;43.864;25.986;2023-03-16T17:34:28;101267.22;;;5.50;100.00
58245;BME280;44550;43.864;25.986;2023-03-16T17:38:30;101278.41;;;5.49;100.00
58245;BME280;44550;43.864;25.986;2023-03-16T17:42:49;101278.69;;;5.57;100.00
58245;BME280;44550;43.864;25.986;2023-03-16T17:46:52;101285.69;;;5.59;100.00
58245;BME280;44550;43.864;25.986;2023-03-16T17:50:53;101299.75;;;5.66;100.00
58245;BME280;44550;43.864;25.986;2023-03-16T17:54:53;101309.25;;;5.89;100.00
58245;BME280;44550;43.864;25.986;2023-03-16T17:58:55;101310.06;;;5.88;100.00
58245;BME280;44550;43.864;25.986;2023-03-16T18:02:55;101323.97;;;6.15;100.00
58245;BME280;44550;43.864;25.986;2023-03-16T18:07:06;101329.75;;;6.31;100.00
58245;BME280;44550;43.864;25.986;2023-03-16T18:11:28;101328.56;;;5.96;100.00
58245;BME280;44550;43.864;25.986;2023-03-16T18:15:41;101333.94;;;6.02;100.00
58245;BME280;44550;43.864;25.986;2023-03-16T18:19:41;101336.28;;;5.95;100.00
58245;BME280;44550;43.864;25.986;2023-03-16T18:23:41;101347.91;;;6.06;100.00
58245;BME280;44550;43.864;25.986;2023-03-16T18:32:19;101354.00;;;6.06;100.00
58245;BME280;44550;43.864;25.986;2023-03-16T18:36:26;101352.22;;;6.31;100.00
58245;BME280;44550;43.864;25.986;2023-03-16T18:40:36;101361.88;;;6.35;100.00
58245;BME280;44550;43.864;25.986;2023-03-16T18:44:48;101367.13;;;6.11;100.00
58245;BME280;44550;43.864;25.986;2023-03-16T18:48:50;101380.25;;;5.92;100.00
58245;BME280;44550;43.864;25.986;2023-03-16T18:52:50;101362.69;;;5.84;100.00
58245;BME280;44550;43.864;25.986;2023-03-16T18:56:53;101389.53;;;5.85;100.00
58245;BME280;44550;43.864;25.986;2023-03-16T19:00:54;101404.56;;;5.70;100.00
58245;BME280;44550;43.864;25.986;2023-03-16T19:04:57;101400.72;;;5.60;100.00
58245;BME280;44550;43.864;25.986;2023-03-16T19:08:59;101396.59;;;5.42;100.00
58245;BME280;44550;43.864;25.986;2023-03-16T19:12:59;101400.13;;;5.45;100.00
58245;BME280;44550;43.864;25.986;2023-03-16T19:16:59;101399.03;;;5.38;100.00
58245;BME280;44550;43.864;25.986;2023-03-16T19:21:00;101403.56;;;5.21;100.00
58245;BME280;44550;43.864;25.986;2023-03-16T19:24:59;101404.06;;;5.12;100.00
58245;BME280;44550;43.864;25.986;2023-03-16T19:28:59;101405.31;;;5.22;100.00
58245;BME280;44550;43.864;25.986;2023-03-16T19:32:58;101409.38;;;5.15;100.00
58245;BME280;44550;43.864;25.986;2023-03-16T19:37:00;101416.31;;;5.16;100.00
58245;BME280;44550;43.864;25.986;2023-03-16T19:40:59;101421.63;;;5.19;100.00
58245;BME280;44550;43.864;25.986;2023-03-16T19:44:59;101424.06;;;5.15;100.00
58245;BME280;44550;43.864;25.986;2023-03-16T19:48:59;101431.66;;;5.10;100.00
58245;BME280;44550;43.864;25.986;2023-03-16T19:53:00;101434.03;;;5.06;100.00
58245;BME280;44550;43.864;25.986;2023-03-16T19:57:00;101431.56;;;5.09;100.00
58245;BME280;44550;43.864;25.986;2023-03-16T20:01:01;101437.72;;;5.11;100.00
58245;BME280;44550;43.864;25.986;2023-03-16T20:05:00;101445.53;;;5.12;100.00
58245;BME280;44550;43.864;25.986;2023-03-16T20:09:02;101453.41;;;5.14;100.00
58245;BME280;44550;43.864;25.986;2023-03-16T20:13:05;101453.66;;;5.20;100.00
58245;BME280;44550;43.864;25.986;2023-03-16T20:17:04;101462.19;;;5.17;100.00
58245;BME280;44550;43.864;25.986;2023-03-16T20:21:07;101466.03;;;5.27;100.00
58245;BME280;44550;43.864;25.986;2023-03-16T20:25:09;101470.00;;;5.19;100.00
58245;BME280;44550;43.864;25.986;2023-03-16T20:29:10;101466.06;;;5.29;100.00
58245;BME280;44550;43.864;25.986;2023-03-16T20:33:18;101472.94;;;5.27;100.00
58245;BME280;44550;43.864;25.986;2023-03-16T20:37:20;101478.25;;;5.30;100.00
58245;BME280;44550;43.864;25.986;2023-03-16T20:41:24;101474.97;;;5.35;100.00
58245;BME280;44550;43.864;25.986;2023-03-16T20:45:24;101481.63;;;5.29;100.00
58245;BME280;44550;43.864;25.986;2023-03-16T20:49:27;101482.97;;;5.19;100.00
58245;BME280;44550;43.864;25.986;2023-03-16T20:53:28;101485.09;;;5.29;100.00
58245;BME280;44550;43.864;25.986;2023-03-16T20:57:30;101486.56;;;5.23;100.00
58245;BME280;44550;43.864;25.986;2023-03-16T21:01:29;101487.41;;;5.22;100.00
58245;BME280;44550;43.864;25.986;2023-03-16T21:05:29;101491.13;;;5.28;100.00
58245;BME280;44550;43.864;25.986;2023-03-16T21:09:29;101492.53;;;5.20;100.00
58245;BME280;44550;43.864;25.986;2023-03-16T21:13:31;101491.63;;;5.40;100.00
58245;BME280;44550;43.864;25.986;2023-03-16T21:17:32;101492.66;;;5.23;100.00
58245;BME280;44550;43.864;25.986;2023-03-16T21:21:32;101495.00;;;5.17;100.00
58245;BME280;44550;43.864;25.986;2023-03-16T21:25:33;101492.66;;;5.23;100.00
58245;BME280;44550;43.864;25.986;2023-03-16T21:29:36;101494.72;;;5.32;100.00
58245;BME280;44550;43.864;25.986;2023-03-16T21:33:36;101490.50;;;5.34;100.00
58245;BME280;44550;43.864;25.986;2023-03-16T21:37:37;101487.19;;;5.38;100.00
58245;BME280;44550;43.864;25.986;2023-03-16T21:41:36;101497.63;;;5.39;100.00